Thornaby, United Kingdom
Current Conditions -  °F | °C
As of 4:20 PM on Tuesday 21 Oct 2014 (Local Time) from EGNV Reporting Station
Few Clouds Few Clouds  
Wind Chill: 10°   Ceiling: Unl
Heat Index: 10°   Visibility: 6mi
Dew Point:   Wind: 30mph
Humidity: 50%   Direction: 300°WNW
Pressure: 29.62"   Gusts: 45mph
Location:  54.54°N, 1.3°W
Report Text: EGNV 211520Z 30026G39KT 9999 FEW035 10/00 Q1003
Loading
Personal Weather Stations






























Interactive Weather Map
Tropical Storm Tracking
New forecast layout! Learn more

10-Day Weather Forecast

Advertisements
Track Severe Weather on mobile